createdAt,value
2017-11-23T00:01:56.207Z,10.77
2017-11-23T00:04:22.841Z,11.80
2017-11-23T00:06:49.446Z,10.27
2017-11-23T00:09:16.075Z,10.48
2017-11-23T00:11:42.695Z,9.18
2017-11-23T00:14:09.323Z,9.45
2017-11-23T00:16:35.952Z,9.70
2017-11-23T00:19:02.568Z,11.05
2017-11-23T00:21:29.188Z,9.25
2017-11-23T00:23:55.823Z,10.80
2017-11-23T00:26:22.440Z,10.30
2017-11-23T00:28:49.059Z,8.80
2017-11-23T00:31:15.772Z,15.93
2017-11-23T00:33:42.393Z,14.77
2017-11-23T00:36:09.004Z,14.00
2017-11-23T00:38:35.644Z,18.00
2017-11-23T00:41:02.263Z,18.12
2017-11-23T00:43:28.895Z,15.48
2017-11-23T00:45:55.524Z,15.65
2017-11-23T00:48:22.138Z,13.75
2017-11-23T00:50:48.756Z,14.48
2017-11-23T00:53:15.391Z,17.90
2017-11-23T00:55:42.008Z,15.23
2017-11-23T00:58:08.624Z,14.40
2017-11-23T01:00:35.339Z,14.52
2017-11-23T01:03:01.955Z,13.25
2017-11-23T01:05:28.578Z,14.60
2017-11-23T01:07:55.203Z,12.63
2017-11-23T01:10:21.885Z,15.02
2017-11-23T01:12:48.498Z,12.70
2017-11-23T01:15:15.130Z,12.27
2017-11-23T01:17:41.735Z,13.80
2017-11-23T01:20:08.451Z,12.80
2017-11-23T01:22:36.931Z,13.65
2017-11-23T01:25:03.552Z,12.50
2017-11-23T01:27:30.203Z,12.45
2017-11-23T01:29:56.835Z,14.68
2017-11-23T01:32:23.488Z,13.40
2017-11-23T01:34:50.119Z,12.30
2017-11-23T01:37:16.735Z,11.70
2017-11-23T01:39:43.353Z,9.90
2017-11-23T01:42:10.048Z,10.80
2017-11-23T01:44:36.691Z,11.35
2017-11-23T01:47:03.318Z,9.57
2017-11-23T01:49:29.960Z,10.85
2017-11-23T01:51:56.572Z,11.15
2017-11-23T01:54:23.195Z,11.65
2017-11-23T01:56:49.845Z,11.82
2017-11-23T01:59:16.476Z,12.05
2017-11-23T02:01:43.197Z,11.15
2017-11-23T02:04:09.910Z,11.57
2017-11-23T02:06:36.531Z,10.85
2017-11-23T02:09:03.164Z,11.90
2017-11-23T02:11:29.787Z,11.18
2017-11-23T02:13:56.407Z,11.88
2017-11-23T02:16:23.021Z,11.75
2017-11-23T02:18:49.653Z,11.68
2017-11-23T02:21:16.383Z,13.38
2017-11-23T02:23:43.021Z,11.50
2017-11-23T02:26:09.642Z,12.05
2017-11-23T02:28:36.263Z,10.82
2017-11-23T02:31:02.891Z,12.75
2017-11-23T02:33:29.531Z,12.18
2017-11-23T02:35:56.139Z,10.27
2017-11-23T02:38:22.785Z,12.27
2017-11-23T02:40:49.476Z,11.90
2017-11-23T02:43:16.096Z,12.10
2017-11-23T02:45:42.759Z,12.02
2017-11-23T02:48:09.379Z,12.35
2017-11-23T02:50:35.994Z,11.88
2017-11-23T02:53:02.708Z,11.38
2017-11-23T02:55:29.316Z,10.80
2017-11-23T02:57:55.948Z,11.20
2017-11-23T03:00:22.564Z,8.68
2017-11-23T03:02:49.184Z,10.70
2017-11-23T03:05:15.825Z,10.80
2017-11-23T03:07:42.510Z,9.60
2017-11-23T03:10:09.126Z,10.52
2017-11-23T03:12:35.759Z,11.80
2017-11-23T03:15:02.367Z,9.90
2017-11-23T03:17:28.982Z,10.30
2017-11-23T03:19:55.723Z,10.93
2017-11-23T03:22:22.337Z,11.47
2017-11-23T03:24:48.956Z,11.10
2017-11-23T03:27:15.582Z,12.57
2017-11-23T03:29:42.196Z,11.20
2017-11-23T03:32:08.834Z,11.75
2017-11-23T03:34:35.543Z,10.45
2017-11-23T03:37:02.169Z,11.68
2017-11-23T03:39:28.790Z,9.10
2017-11-23T03:41:55.407Z,12.07
2017-11-23T03:44:22.023Z,10.93
2017-11-23T03:46:48.647Z,9.32
2017-11-23T03:49:15.264Z,11.40
2017-11-23T03:51:41.875Z,11.40
2017-11-23T03:54:08.503Z,11.68
2017-11-23T03:56:35.119Z,12.07
2017-11-23T03:59:01.749Z,11.32
2017-11-23T04:01:28.363Z,11.25
2017-11-23T04:03:54.979Z,12.10
2017-11-23T04:06:21.619Z,11.25
2017-11-23T04:08:48.237Z,10.35
2017-11-23T04:11:14.852Z,11.10
2017-11-23T04:13:41.489Z,10.65
2017-11-23T04:16:08.107Z,10.70
2017-11-23T04:18:34.757Z,11.38
2017-11-23T04:21:01.374Z,11.18
2017-11-23T04:23:28.000Z,11.20
2017-11-23T04:25:54.631Z,10.55
2017-11-23T04:28:21.257Z,10.73
2017-11-23T04:30:47.894Z,9.55
2017-11-23T04:33:14.507Z,11.50
2017-11-23T04:35:41.123Z,11.10
2017-11-23T04:38:07.767Z,11.98
2017-11-23T04:40:34.383Z,12.40
2017-11-23T04:43:01.088Z,10.50
2017-11-23T04:45:27.719Z,10.18
2017-11-23T04:47:54.344Z,9.45
2017-11-23T04:50:20.965Z,12.25
2017-11-23T04:52:47.614Z,9.45
2017-11-23T04:55:14.222Z,10.27
2017-11-23T04:57:40.863Z,9.90
2017-11-23T05:00:07.499Z,9.55
2017-11-23T05:02:34.110Z,11.60
2017-11-23T05:05:00.741Z,13.35
2017-11-23T05:07:27.377Z,10.68
2017-11-23T05:09:53.988Z,9.65
2017-11-23T05:12:20.612Z,9.95
2017-11-23T05:14:47.228Z,11.20
2017-11-23T05:17:14.076Z,8.85
2017-11-23T05:19:40.714Z,11.20
2017-11-23T05:22:07.339Z,9.90
2017-11-23T05:24:33.956Z,11.27
2017-11-23T05:27:00.584Z,9.48
2017-11-23T05:29:27.309Z,10.43
2017-11-23T05:31:53.919Z,12.40
2017-11-23T05:34:20.551Z,11.52
2017-11-23T05:36:47.183Z,13.32
2017-11-23T05:39:13.817Z,10.32
2017-11-23T05:41:40.452Z,9.48
2017-11-23T05:44:07.108Z,9.77
2017-11-23T05:46:33.728Z,10.90
2017-11-23T05:49:00.371Z,10.73
2017-11-23T05:51:27.023Z,10.48
2017-11-23T05:53:53.643Z,10.43
2017-11-23T05:56:20.276Z,11.00
2017-11-23T05:58:46.931Z,8.40
2017-11-23T06:01:13.547Z,9.35
2017-11-23T06:03:40.180Z,11.12
2017-11-23T06:06:06.795Z,11.30
2017-11-23T06:08:33.409Z,11.40
2017-11-23T06:11:00.039Z,10.68
2017-11-23T06:13:26.647Z,10.60
2017-11-23T06:15:53.254Z,11.77
2017-11-23T06:18:19.895Z,10.90
2017-11-23T06:20:46.521Z,10.55
2017-11-23T06:23:13.157Z,10.10
2017-11-23T06:25:39.787Z,11.57
2017-11-23T06:28:06.508Z,10.95
2017-11-23T06:30:37.772Z,10.00
2017-11-23T06:33:04.868Z,9.52
2017-11-23T06:35:32.044Z,10.60
2017-11-23T06:38:00.440Z,9.27
2017-11-23T06:40:27.869Z,9.88
2017-11-23T06:42:54.562Z,10.18
2017-11-23T06:45:21.218Z,10.35
2017-11-23T06:47:47.858Z,12.20
2017-11-23T06:50:14.497Z,9.70
2017-11-23T06:52:41.136Z,10.13
2017-11-23T06:55:07.760Z,9.77
2017-11-23T06:57:34.402Z,10.02
2017-11-23T07:00:01.053Z,9.40
2017-11-23T07:02:27.671Z,8.50
2017-11-23T07:04:54.316Z,10.48
2017-11-23T07:07:20.923Z,9.07
2017-11-23T07:09:47.584Z,8.85
2017-11-23T07:12:14.223Z,9.85
2017-11-23T07:14:40.852Z,9.85
2017-11-23T07:17:07.472Z,9.57
2017-11-23T07:19:34.183Z,10.20
2017-11-23T07:22:00.795Z,9.13
2017-11-23T07:24:27.532Z,10.05
2017-11-23T07:26:54.171Z,9.50
2017-11-23T07:29:20.792Z,10.55
2017-11-23T07:31:47.424Z,12.45
2017-11-23T07:34:14.083Z,10.93
2017-11-23T07:36:40.700Z,11.48
2017-11-23T07:39:07.340Z,12.02
2017-11-23T07:41:33.999Z,11.05
2017-11-23T07:44:00.623Z,10.40
2017-11-23T07:46:27.275Z,9.55
2017-11-23T07:48:53.908Z,10.43
2017-11-23T07:51:20.527Z,10.55
2017-11-23T07:53:47.163Z,9.73
2017-11-23T07:56:13.833Z,8.40
2017-11-23T07:58:40.464Z,9.88
2017-11-23T08:01:07.103Z,8.77
2017-11-23T08:03:33.716Z,9.05
2017-11-23T08:06:00.331Z,9.43
2017-11-23T08:08:26.987Z,9.32
2017-11-23T08:10:53.608Z,8.80
2017-11-23T08:13:20.304Z,8.95
2017-11-23T08:15:46.941Z,7.10
2017-11-23T08:18:13.619Z,7.30
2017-11-23T08:20:40.238Z,6.80
2017-11-23T08:23:06.860Z,7.55
2017-11-23T08:25:33.531Z,7.28
2017-11-23T08:28:00.168Z,7.43
2017-11-23T08:30:26.783Z,7.22
2017-11-23T08:32:53.392Z,8.40
2017-11-23T08:35:20.031Z,6.72
2017-11-23T08:37:46.647Z,7.85
2017-11-23T08:40:13.251Z,7.18
2017-11-23T08:42:39.975Z,6.93
2017-11-23T08:45:06.578Z,7.18
2017-11-23T08:47:33.192Z,7.40
2017-11-23T08:49:59.837Z,8.45
2017-11-23T08:52:26.463Z,7.37
2017-11-23T08:54:54.864Z,7.07
2017-11-23T08:57:21.499Z,7.20
2017-11-23T08:59:48.183Z,8.23
2017-11-23T09:02:14.786Z,7.80
2017-11-23T09:04:41.463Z,7.40
2017-11-23T09:07:08.081Z,7.78
2017-11-23T09:09:34.715Z,8.35
2017-11-23T09:12:02.331Z,8.30
2017-11-23T09:14:28.936Z,7.32
2017-11-23T09:16:56.352Z,8.18
2017-11-23T09:19:23.080Z,8.43
2017-11-23T09:21:49.679Z,7.57
2017-11-23T09:24:16.302Z,7.72
2017-11-23T09:26:42.908Z,8.45
2017-11-23T09:29:09.549Z,8.63
2017-11-23T09:31:36.243Z,8.13
2017-11-23T09:34:02.851Z,7.50
2017-11-23T09:36:29.491Z,8.32
2017-11-23T09:38:56.096Z,7.68
2017-11-23T09:41:22.707Z,8.80
2017-11-23T09:43:49.335Z,7.50
2017-11-23T09:46:15.960Z,7.55
2017-11-23T09:48:42.608Z,7.10
2017-11-23T09:51:09.236Z,7.07
2017-11-23T09:53:35.851Z,7.50
2017-11-23T09:56:02.452Z,8.07
2017-11-23T09:58:29.095Z,7.75
2017-11-23T10:00:55.704Z,7.07
2017-11-23T10:03:22.315Z,6.43
2017-11-23T10:05:48.994Z,7.03
2017-11-23T10:08:15.620Z,6.50
2017-11-23T10:10:42.235Z,7.07
2017-11-23T10:13:08.867Z,6.70
2017-11-23T10:15:37.459Z,6.93
2017-11-23T10:18:04.065Z,7.53
2017-11-23T10:20:30.708Z,7.97
2017-11-23T10:22:57.321Z,7.25
2017-11-23T10:25:23.926Z,8.48
2017-11-23T10:27:50.565Z,7.97
2017-11-23T10:30:17.194Z,8.35
2017-11-23T10:32:43.801Z,7.43
2017-11-23T10:35:10.493Z,6.60
2017-11-23T10:37:42.865Z,6.18
2017-11-23T10:40:09.491Z,7.93
2017-11-23T10:42:36.149Z,7.60
2017-11-23T10:45:02.764Z,7.25
2017-11-23T10:47:29.418Z,7.20
2017-11-23T10:49:56.059Z,6.82
2017-11-23T10:52:22.703Z,7.00
2017-11-23T10:54:49.315Z,7.07
2017-11-23T10:57:15.930Z,8.20
2017-11-23T10:59:43.424Z,6.82
2017-11-23T11:02:10.048Z,7.62
2017-11-23T11:04:36.660Z,6.93
2017-11-23T11:07:03.291Z,7.12
2017-11-23T11:09:29.899Z,6.28
2017-11-23T11:11:56.508Z,7.55
2017-11-23T11:14:23.137Z,7.68
2017-11-23T11:16:49.747Z,8.18
2017-11-23T11:19:16.357Z,7.53
2017-11-23T11:21:43.071Z,8.00
2017-11-23T11:24:09.681Z,9.30
2017-11-23T11:26:36.294Z,8.23
2017-11-23T11:29:02.911Z,7.32
2017-11-23T11:31:29.536Z,7.32
2017-11-23T11:33:56.147Z,7.12
2017-11-23T11:36:22.851Z,6.47
2017-11-23T11:38:49.465Z,7.00
2017-11-23T11:41:16.087Z,7.05
2017-11-23T11:43:42.778Z,7.75
2017-11-23T11:46:09.377Z,7.12
2017-11-23T11:48:36.037Z,6.20
2017-11-23T11:51:02.686Z,6.32
2017-11-23T11:53:29.308Z,7.37
2017-11-23T11:55:55.905Z,6.35
2017-11-23T11:58:22.506Z,6.47
2017-11-23T12:00:49.123Z,5.95
2017-11-23T12:03:15.741Z,6.97
2017-11-23T12:05:42.417Z,6.60
2017-11-23T12:08:09.079Z,5.93
2017-11-23T12:10:35.797Z,6.87
2017-11-23T12:13:02.411Z,6.07
2017-11-23T12:15:32.792Z,6.25
2017-11-23T12:18:05.363Z,5.75
2017-11-23T12:20:38.006Z,5.62
2017-11-23T12:23:10.684Z,6.75
2017-11-23T12:25:52.255Z,6.10
2017-11-23T12:28:24.617Z,5.72
2017-11-23T12:30:51.236Z,6.05
2017-11-23T12:33:17.856Z,5.82
2017-11-23T12:35:44.484Z,5.78
2017-11-23T12:38:11.119Z,6.12
2017-11-23T12:40:37.732Z,6.00
2017-11-23T12:43:04.339Z,6.18
2017-11-23T12:45:30.960Z,5.68
2017-11-23T12:47:57.580Z,5.45
2017-11-23T12:50:24.197Z,5.37
2017-11-23T12:52:50.919Z,5.60
2017-11-23T12:55:17.531Z,7.50
2017-11-23T12:57:44.160Z,5.78
2017-11-23T13:00:10.763Z,7.53
2017-11-23T13:02:37.379Z,6.40
2017-11-23T13:05:04.015Z,16.05
2017-11-23T13:07:30.632Z,7.12
2017-11-23T13:09:57.296Z,6.90
2017-11-23T13:12:24.143Z,6.60
2017-11-23T13:14:50.879Z,5.68
2017-11-23T13:17:17.862Z,7.15
2017-11-23T13:19:44.865Z,6.28
2017-11-23T13:22:12.673Z,7.03
2017-11-23T13:24:39.721Z,8.00
2017-11-23T13:27:06.383Z,5.80
2017-11-23T13:29:33.015Z,16.17
2017-11-23T13:31:59.627Z,12.27
2017-11-23T13:34:26.250Z,6.20
2017-11-23T13:36:52.867Z,6.07
2017-11-23T13:39:20.523Z,6.07
2017-11-23T13:41:47.354Z,6.50
2017-11-23T13:44:14.173Z,5.35
2017-11-23T13:46:40.908Z,7.50
2017-11-23T13:49:07.760Z,6.45
2017-11-23T13:51:34.453Z,5.80
2017-11-23T13:54:01.368Z,6.62
2017-11-23T13:56:28.264Z,6.20
2017-11-23T13:58:54.979Z,14.35
2017-11-23T14:01:21.624Z,5.87
2017-11-23T14:03:48.245Z,6.85
2017-11-23T14:06:15.061Z,5.87
2017-11-23T14:08:42.970Z,8.32
2017-11-23T14:11:09.693Z,5.78
2017-11-23T14:13:36.328Z,6.22
2017-11-23T14:16:02.954Z,6.68
2017-11-23T14:18:29.624Z,6.32
2017-11-23T14:20:56.309Z,7.07
2017-11-23T14:23:22.940Z,5.55
2017-11-23T14:25:51.490Z,6.30
2017-11-23T14:28:18.276Z,5.65
2017-11-23T14:30:45.663Z,6.10
2017-11-23T14:33:12.560Z,6.35
2017-11-23T14:35:39.200Z,6.30
2017-11-23T14:38:05.873Z,5.70
2017-11-23T14:40:32.548Z,6.18
2017-11-23T14:42:59.226Z,6.10
2017-11-23T14:45:25.887Z,5.68
2017-11-23T14:47:52.545Z,6.68
2017-11-23T14:50:19.168Z,6.32
2017-11-23T14:52:45.847Z,6.95
2017-11-23T14:55:12.463Z,5.32
2017-11-23T14:57:39.100Z,8.02
2017-11-23T15:00:05.721Z,6.00
2017-11-23T15:02:32.348Z,6.70
2017-11-23T15:04:58.985Z,6.60
2017-11-23T15:07:25.598Z,7.95
2017-11-23T15:09:52.198Z,6.32
2017-11-23T15:12:18.850Z,6.10
2017-11-23T15:14:45.464Z,6.50
2017-11-23T15:17:12.072Z,6.45
2017-11-23T15:19:38.710Z,5.70
2017-11-23T15:22:05.358Z,5.82
2017-11-23T15:24:32.060Z,8.38
2017-11-23T15:26:58.692Z,6.80
2017-11-23T15:29:25.292Z,7.53
2017-11-23T15:31:51.914Z,12.43
2017-11-23T15:34:18.580Z,11.35
2017-11-23T15:36:45.259Z,8.48
2017-11-23T15:39:11.877Z,7.78
2017-11-23T15:41:38.515Z,11.05
2017-11-23T15:44:05.128Z,12.70
2017-11-23T15:46:31.755Z,11.10
2017-11-23T15:48:58.391Z,11.50
2017-11-23T15:51:25.012Z,9.13
2017-11-23T15:53:51.650Z,14.85
2017-11-23T15:56:18.276Z,7.80
2017-11-23T15:58:44.888Z,12.93
2017-11-23T16:01:11.524Z,9.20
2017-11-23T16:03:38.181Z,17.40
2017-11-23T16:06:04.807Z,12.10
2017-11-23T16:08:31.435Z,9.05
2017-11-23T16:10:58.141Z,7.22
2017-11-23T16:13:24.751Z,7.97
2017-11-23T16:15:51.494Z,12.60
2017-11-23T16:18:18.102Z,7.78
2017-11-23T16:20:44.723Z,10.57
2017-11-23T16:23:11.358Z,11.12
2017-11-23T16:25:37.963Z,8.00
2017-11-23T16:28:04.584Z,12.50
2017-11-23T16:30:31.203Z,6.25
2017-11-23T16:32:57.812Z,7.50
2017-11-23T16:35:24.415Z,8.73
2017-11-23T16:37:55.680Z,10.70
2017-11-23T16:40:39.083Z,7.97
2017-11-23T16:43:16.534Z,9.25
2017-11-23T16:45:48.737Z,6.97
2017-11-23T16:48:21.133Z,7.00
2017-11-23T16:50:53.471Z,6.05
2017-11-23T16:53:25.874Z,7.28
2017-11-23T16:55:58.108Z,7.40
2017-11-23T16:58:39.628Z,8.43
2017-11-23T17:01:08.925Z,7.05
2017-11-23T17:03:41.415Z,7.50
2017-11-23T17:06:13.715Z,7.47
2017-11-23T17:08:55.232Z,10.90
2017-11-23T17:11:27.533Z,9.13
2017-11-23T17:13:59.892Z,8.45
2017-11-23T17:16:32.203Z,8.23
2017-11-23T17:18:59.349Z,12.30
2017-11-23T17:21:25.974Z,8.25
2017-11-23T17:23:52.592Z,7.60
2017-11-23T17:26:19.212Z,7.70
2017-11-23T17:28:45.818Z,7.35
2017-11-23T17:31:12.437Z,8.52
2017-11-23T17:33:39.061Z,8.07
2017-11-23T17:36:05.675Z,8.90
2017-11-23T17:38:32.311Z,8.35
2017-11-23T17:40:58.939Z,7.90
2017-11-23T17:43:25.547Z,8.50
2017-11-23T17:45:52.179Z,8.73
2017-11-23T17:48:18.782Z,8.65
2017-11-23T17:50:45.411Z,7.93
2017-11-23T17:53:12.016Z,8.77
2017-11-23T17:55:38.656Z,7.07
2017-11-23T17:58:05.277Z,9.27
2017-11-23T18:00:31.893Z,8.85
2017-11-23T18:02:58.607Z,8.30
2017-11-23T18:05:25.243Z,7.47
2017-11-23T18:07:51.863Z,9.30
2017-11-23T18:10:18.496Z,7.43
2017-11-23T18:12:45.127Z,7.10
2017-11-23T18:15:11.822Z,7.05
2017-11-23T18:17:38.431Z,6.60
2017-11-23T18:20:05.091Z,7.50
2017-11-23T18:22:32.278Z,6.60
2017-11-23T18:25:00.743Z,7.25
2017-11-23T18:27:27.420Z,6.95
2017-11-23T18:29:54.045Z,7.47
2017-11-23T18:32:20.660Z,7.80
2017-11-23T18:34:47.339Z,8.68
2017-11-23T18:37:13.999Z,7.62
2017-11-23T18:39:40.698Z,10.05
2017-11-23T18:42:07.368Z,8.35
2017-11-23T18:44:34.092Z,10.07
2017-11-23T18:47:00.746Z,8.95
2017-11-23T18:49:27.375Z,9.70
2017-11-23T18:51:54.016Z,9.75
2017-11-23T18:54:20.659Z,9.63
2017-11-23T18:56:47.303Z,9.73
2017-11-23T18:59:13.932Z,9.25
2017-11-23T19:01:40.571Z,10.90
2017-11-23T19:04:07.210Z,8.70
2017-11-23T19:06:34.342Z,8.30
2017-11-23T19:09:01.050Z,9.95
2017-11-23T19:11:27.678Z,8.45
2017-11-23T19:13:54.282Z,9.63
2017-11-23T19:16:20.897Z,7.90
2017-11-23T19:18:47.519Z,7.90
2017-11-23T19:21:14.132Z,8.52
2017-11-23T19:23:40.768Z,8.20
2017-11-23T19:26:07.399Z,7.35
2017-11-23T19:28:34.016Z,7.87
2017-11-23T19:31:00.639Z,7.78
2017-11-23T19:33:27.256Z,8.75
2017-11-23T19:35:53.875Z,7.85
2017-11-23T19:38:20.603Z,8.23
2017-11-23T19:40:47.252Z,8.77
2017-11-23T19:43:13.929Z,7.97
2017-11-23T19:45:40.632Z,7.87
2017-11-23T19:48:07.247Z,8.70
2017-11-23T19:50:33.863Z,8.27
2017-11-23T19:53:00.498Z,14.00
2017-11-23T19:55:27.127Z,9.65
2017-11-23T19:57:53.740Z,12.02
2017-11-23T20:00:20.455Z,9.10
2017-11-23T20:02:47.084Z,8.55
2017-11-23T20:05:13.752Z,8.77
2017-11-23T20:07:40.375Z,8.32
2017-11-23T20:10:07.005Z,8.88
2017-11-23T20:12:33.662Z,8.07
2017-11-23T20:15:00.411Z,7.85
2017-11-23T20:17:27.026Z,11.63
2017-11-23T20:19:53.643Z,7.93
2017-11-23T20:22:20.275Z,9.82
2017-11-23T20:24:46.883Z,7.90
2017-11-23T20:27:13.506Z,8.25
2017-11-23T20:29:40.125Z,7.68
2017-11-23T20:32:06.742Z,9.07
2017-11-23T20:34:33.378Z,7.47
2017-11-23T20:37:00.011Z,8.48
2017-11-23T20:39:26.643Z,7.90
2017-11-23T20:41:53.283Z,11.82
2017-11-23T20:44:19.902Z,9.23
2017-11-23T20:46:46.507Z,7.55
2017-11-23T20:49:13.139Z,7.60
2017-11-23T20:51:39.755Z,7.85
2017-11-23T20:54:06.420Z,7.70
2017-11-23T20:56:33.030Z,8.15
2017-11-23T20:58:59.634Z,7.75
2017-11-23T21:01:26.276Z,9.15
2017-11-23T21:03:52.895Z,7.95
2017-11-23T21:06:19.496Z,7.75
2017-11-23T21:08:46.132Z,8.43
2017-11-23T21:11:12.746Z,8.45
2017-11-23T21:13:39.374Z,8.30
2017-11-23T21:16:06.000Z,8.40
2017-11-23T21:18:32.705Z,7.85
2017-11-23T21:20:59.320Z,8.00
2017-11-23T21:23:25.984Z,9.05
2017-11-23T21:25:52.600Z,8.40
2017-11-23T21:28:19.218Z,7.50
2017-11-23T21:30:45.911Z,7.20
2017-11-23T21:33:12.523Z,8.07
2017-11-23T21:35:39.131Z,8.27
2017-11-23T21:38:05.826Z,7.97
2017-11-23T21:40:32.422Z,8.05
2017-11-23T21:42:59.040Z,7.82
2017-11-23T21:45:25.740Z,8.45
2017-11-23T21:47:52.344Z,8.38
2017-11-23T21:50:18.956Z,8.90
2017-11-23T21:52:45.583Z,7.40
2017-11-23T21:55:12.204Z,8.82
2017-11-23T21:57:38.811Z,9.60
2017-11-23T22:00:05.442Z,8.50
2017-11-23T22:02:32.150Z,8.52
2017-11-23T22:04:58.770Z,7.87
2017-11-23T22:07:25.499Z,9.05
2017-11-23T22:09:52.118Z,8.93
2017-11-23T22:12:18.730Z,8.18
2017-11-23T22:14:45.347Z,7.82
2017-11-23T22:17:12.182Z,8.60
2017-11-23T22:19:38.811Z,8.75
2017-11-23T22:22:05.532Z,9.38
2017-11-23T22:24:32.132Z,7.60
2017-11-23T22:26:58.755Z,8.25
2017-11-23T22:29:25.358Z,7.95
2017-11-23T22:31:51.975Z,8.00
2017-11-23T22:34:18.599Z,7.85
2017-11-23T22:36:45.204Z,8.07
2017-11-23T22:39:11.818Z,7.55
2017-11-23T22:41:38.476Z,7.87
2017-11-23T22:44:05.092Z,7.82
2017-11-23T22:46:31.700Z,7.80
2017-11-23T22:48:58.328Z,7.82
2017-11-23T22:51:24.930Z,7.78
2017-11-23T22:53:51.538Z,7.78
2017-11-23T22:56:18.163Z,8.27
2017-11-23T22:58:44.771Z,8.25
2017-11-23T23:01:11.391Z,7.15
2017-11-23T23:03:38.011Z,7.13
2017-11-23T23:06:04.625Z,7.85
2017-11-23T23:08:31.302Z,6.95
2017-11-23T23:10:57.921Z,7.97
2017-11-23T23:13:24.537Z,7.50
2017-11-23T23:15:51.152Z,7.75
2017-11-23T23:18:17.787Z,7.50
2017-11-23T23:20:44.396Z,7.53
2017-11-23T23:23:11.009Z,6.90
2017-11-23T23:25:37.741Z,7.90
2017-11-23T23:28:04.339Z,6.87
2017-11-23T23:30:30.944Z,7.15
2017-11-23T23:32:57.566Z,7.90
2017-11-23T23:35:24.190Z,7.25
2017-11-23T23:37:50.816Z,7.90
2017-11-23T23:40:17.443Z,7.30
2017-11-23T23:42:44.051Z,7.93
2017-11-23T23:45:10.659Z,7.47
2017-11-23T23:47:37.284Z,6.95
2017-11-23T23:50:03.910Z,6.50
2017-11-23T23:52:30.528Z,6.70
2017-11-23T23:54:57.148Z,6.43
2017-11-23T23:57:23.751Z,7.65
2017-11-23T23:59:50.364Z,6.53
